createdAt,value
2023-02-22T00:00:42.427Z,4.40
2023-02-22T00:03:16.231Z,4.40
2023-02-22T00:05:44.023Z,4.40
2023-02-22T00:08:11.481Z,4.30
2023-02-22T00:10:38.422Z,4.40
2023-02-22T00:13:08.267Z,4.30
2023-02-22T00:15:36.241Z,4.30
2023-02-22T00:18:04.484Z,4.30
2023-02-22T00:20:31.229Z,4.30
2023-02-22T00:22:58.241Z,4.30
2023-02-22T00:25:25.606Z,4.30
2023-02-22T00:27:52.510Z,4.20
2023-02-22T00:30:22.689Z,4.20
2023-02-22T00:32:50.273Z,4.20
2023-02-22T00:35:18.915Z,4.20
2023-02-22T00:37:48.175Z,4.10
2023-02-22T00:40:17.358Z,4.00
2023-02-22T00:42:44.207Z,4.00
2023-02-22T00:45:10.938Z,4.00
2023-02-22T00:47:39.028Z,4.00
2023-02-22T00:50:06.235Z,4.00
2023-02-22T00:52:32.959Z,4.00
2023-02-22T00:54:59.690Z,4.00
2023-02-22T00:57:26.418Z,4.00
2023-02-22T00:59:53.205Z,4.00
2023-02-22T01:02:20.379Z,3.90
2023-02-22T01:04:48.659Z,4.00
2023-02-22T01:07:15.616Z,3.90
2023-02-22T01:09:42.356Z,3.90
2023-02-22T01:12:09.117Z,3.90
2023-02-22T01:14:35.869Z,3.90
2023-02-22T01:17:02.670Z,3.90
2023-02-22T01:19:29.549Z,3.90
2023-02-22T01:21:58.760Z,3.90
2023-02-22T01:24:25.504Z,3.90
2023-02-22T01:26:52.845Z,3.90
2023-02-22T01:29:20.272Z,3.80
2023-02-22T01:31:52.716Z,3.90
2023-02-22T01:34:19.608Z,3.90
2023-02-22T01:36:46.375Z,3.90
2023-02-22T01:39:14.713Z,3.80
2023-02-22T01:41:41.454Z,3.80
2023-02-22T01:44:20.375Z,3.80
2023-02-22T01:46:47.028Z,3.80
2023-02-22T01:49:15.144Z,3.80
2023-02-22T01:51:46.005Z,3.80
2023-02-22T01:54:17.695Z,3.80
2023-02-22T01:56:48.554Z,3.80
2023-02-22T01:59:15.526Z,3.80
2023-02-22T02:01:42.962Z,3.70
2023-02-22T02:04:12.729Z,3.70
2023-02-22T02:06:40.184Z,3.70
2023-02-22T02:09:12.244Z,3.60
2023-02-22T02:11:41.607Z,3.60
2023-02-22T02:14:10.304Z,3.60
2023-02-22T02:16:41.799Z,3.60
2023-02-22T02:19:14.778Z,3.60
2023-02-22T02:22:15.096Z,3.60
2023-02-22T02:25:11.901Z,3.60
2023-02-22T02:27:57.914Z,3.60
2023-02-22T02:30:54.751Z,3.50
2023-02-22T02:33:29.559Z,3.50
2023-02-22T02:36:01.693Z,3.50
2023-02-22T02:38:34.890Z,3.50
2023-02-22T02:41:08.510Z,3.50
2023-02-22T02:43:40.422Z,3.60
2023-02-22T02:46:12.150Z,3.60
2023-02-22T02:48:45.096Z,3.50
2023-02-22T02:51:13.202Z,3.40
2023-02-22T02:53:44.595Z,3.40
2023-02-22T02:56:11.450Z,3.30
2023-02-22T02:58:45.698Z,3.30
2023-02-22T03:01:15.313Z,3.20
2023-02-22T03:03:58.436Z,3.20
2023-02-22T03:06:51.334Z,3.20
2023-02-22T03:09:30.339Z,3.20
2023-02-22T03:12:00.990Z,3.20
2023-02-22T03:14:37.551Z,3.20
2023-02-22T03:17:12.042Z,3.20
2023-02-22T03:19:46.866Z,3.20
2023-02-22T03:22:20.623Z,3.20
2023-02-22T03:24:53.566Z,3.20
2023-02-22T03:27:24.708Z,3.10
2023-02-22T03:29:54.764Z,3.10
2023-02-22T03:32:27.748Z,3.00
2023-02-22T03:35:01.158Z,3.00
2023-02-22T03:37:31.668Z,2.90
2023-02-22T03:40:01.629Z,3.00
2023-02-22T03:42:33.619Z,3.00
2023-02-22T03:45:02.658Z,3.10
2023-02-22T03:47:31.091Z,3.00
2023-02-22T03:50:04.628Z,3.10
2023-02-22T03:52:31.477Z,3.00
2023-02-22T03:54:58.243Z,2.80
2023-02-22T03:57:28.574Z,2.90
2023-02-22T03:59:55.640Z,2.90
2023-02-22T04:02:22.342Z,2.80
2023-02-22T04:04:49.541Z,2.80
2023-02-22T04:07:17.836Z,2.80
2023-02-22T04:09:44.602Z,2.80
2023-02-22T04:12:11.324Z,2.80
2023-02-22T04:14:38.065Z,2.80
2023-02-22T04:17:04.833Z,2.80
2023-02-22T04:19:31.603Z,2.70
2023-02-22T04:21:58.407Z,2.70
2023-02-22T04:24:26.509Z,2.70
2023-02-22T04:26:53.616Z,2.80
2023-02-22T04:29:20.361Z,2.80
2023-02-22T04:31:47.363Z,2.70
2023-02-22T04:34:14.126Z,2.70
2023-02-22T04:36:40.987Z,2.70
2023-02-22T04:39:07.712Z,2.70
2023-02-22T04:41:35.808Z,2.70
2023-02-22T04:44:03.034Z,2.70
2023-02-22T04:46:29.881Z,2.80
2023-02-22T04:48:57.156Z,2.70
2023-02-22T04:51:24.016Z,2.80
2023-02-22T04:53:50.760Z,2.80
2023-02-22T04:56:17.847Z,2.70
2023-02-22T04:58:45.929Z,2.70
2023-02-22T05:01:12.968Z,2.70
2023-02-22T05:03:42.036Z,2.70
2023-02-22T05:06:08.929Z,2.80
2023-02-22T05:08:35.685Z,2.60
2023-02-22T05:11:02.431Z,2.60
2023-02-22T05:13:29.190Z,2.60
2023-02-22T05:15:57.347Z,2.50
2023-02-22T05:18:24.122Z,2.50
2023-02-22T05:20:52.086Z,2.50
2023-02-22T05:23:18.870Z,2.50
2023-02-22T05:25:45.615Z,2.60
2023-02-22T05:28:14.411Z,2.50
2023-02-22T05:30:41.491Z,2.40
2023-02-22T05:33:10.113Z,2.40
2023-02-22T05:35:37.663Z,2.40
2023-02-22T05:38:04.908Z,2.40
2023-02-22T05:40:31.887Z,2.50
2023-02-22T05:42:59.344Z,2.50
2023-02-22T05:45:27.773Z,2.50
2023-02-22T05:47:54.852Z,2.50
2023-02-22T05:50:23.326Z,2.50
2023-02-22T05:52:50.416Z,2.50
2023-02-22T05:55:20.872Z,2.50
2023-02-22T05:57:47.740Z,2.50
2023-02-22T06:00:18.260Z,2.50
2023-02-22T06:02:45.121Z,2.50
2023-02-22T06:05:12.116Z,2.50
2023-02-22T06:07:40.563Z,2.60
2023-02-22T06:10:07.648Z,2.60
2023-02-22T06:12:34.507Z,2.60
2023-02-22T06:15:01.344Z,2.60
2023-02-22T06:17:28.084Z,2.60
2023-02-22T06:19:54.833Z,2.70
2023-02-22T06:22:21.620Z,2.70
2023-02-22T06:24:49.693Z,2.70
2023-02-22T06:27:16.506Z,2.60
2023-02-22T06:29:45.336Z,2.70
2023-02-22T06:32:12.112Z,2.70
2023-02-22T06:34:39.017Z,2.70
2023-02-22T06:37:05.736Z,2.70
2023-02-22T06:39:32.500Z,2.70
2023-02-22T06:42:00.670Z,2.70
2023-02-22T06:44:27.476Z,2.70
2023-02-22T06:46:54.215Z,2.70
2023-02-22T06:49:21.003Z,2.80
2023-02-22T06:51:48.086Z,2.80
2023-02-22T06:54:15.141Z,2.80
2023-02-22T06:56:42.322Z,2.80
2023-02-22T06:59:10.465Z,2.80
2023-02-22T07:01:37.486Z,2.80
2023-02-22T07:04:04.262Z,2.80
2023-02-22T07:06:31.033Z,2.80
2023-02-22T07:08:57.836Z,2.80
2023-02-22T07:11:24.614Z,2.90
2023-02-22T07:13:51.413Z,2.90
2023-02-22T07:16:19.659Z,2.90
2023-02-22T07:18:46.545Z,3.00
2023-02-22T07:21:13.391Z,3.00
2023-02-22T07:23:40.132Z,3.00
2023-02-22T07:26:06.875Z,3.00
2023-02-22T07:28:33.612Z,3.10
2023-02-22T07:31:00.325Z,3.10
2023-02-22T07:33:28.688Z,3.10
2023-02-22T07:35:55.455Z,3.10
2023-02-22T07:38:22.201Z,3.10
2023-02-22T07:40:48.977Z,3.20
2023-02-22T07:43:17.284Z,3.20
2023-02-22T07:45:44.349Z,3.20
2023-02-22T07:48:12.150Z,3.20
2023-02-22T07:50:40.972Z,3.20
2023-02-22T07:53:11.834Z,3.30
2023-02-22T07:55:38.666Z,3.30
2023-02-22T07:58:06.889Z,3.40
2023-02-22T08:00:36.353Z,3.40
2023-02-22T08:03:05.361Z,3.40
2023-02-22T08:05:33.195Z,3.40
2023-02-22T08:08:01.535Z,3.30
2023-02-22T08:10:29.879Z,3.40
2023-02-22T08:12:56.808Z,3.40
2023-02-22T08:15:25.487Z,3.60
2023-02-22T08:17:52.495Z,3.50
2023-02-22T08:20:19.576Z,3.60
2023-02-22T08:22:46.835Z,3.60
2023-02-22T08:25:15.882Z,3.60
2023-02-22T08:27:42.977Z,3.60
2023-02-22T08:30:15.797Z,3.60
2023-02-22T08:32:43.113Z,3.60
2023-02-22T08:35:09.878Z,3.70
2023-02-22T08:37:36.625Z,3.60
2023-02-22T08:40:03.712Z,3.70
2023-02-22T08:42:33.925Z,3.70
2023-02-22T08:45:02.195Z,3.80
2023-02-22T08:47:29.479Z,3.80
2023-02-22T08:49:56.724Z,3.90
2023-02-22T08:52:23.440Z,4.00
2023-02-22T08:54:50.348Z,4.00
2023-02-22T08:57:17.057Z,4.00
2023-02-22T08:59:45.132Z,4.10
2023-02-22T09:02:15.663Z,4.10
2023-02-22T09:04:42.717Z,4.30
2023-02-22T09:07:09.639Z,4.40
2023-02-22T09:09:36.402Z,4.50
2023-02-22T09:12:04.105Z,4.60
2023-02-22T09:14:30.838Z,4.60
2023-02-22T09:16:58.939Z,4.80
2023-02-22T09:19:25.741Z,5.10
2023-02-22T09:21:53.502Z,5.20
2023-02-22T09:24:20.214Z,5.00
2023-02-22T09:26:47.930Z,5.20
2023-02-22T09:29:14.642Z,5.10
2023-02-22T09:31:41.968Z,5.10
2023-02-22T09:34:10.114Z,5.30
2023-02-22T09:36:36.925Z,5.50
2023-02-22T09:39:03.738Z,5.50
2023-02-22T09:41:36.180Z,5.70
2023-02-22T09:44:16.418Z,5.70
2023-02-22T09:46:45.599Z,5.80
2023-02-22T09:49:22.998Z,5.80
2023-02-22T09:51:57.078Z,6.10
2023-02-22T09:54:28.557Z,6.10
2023-02-22T09:56:58.077Z,6.00
2023-02-22T09:59:29.641Z,6.00
2023-02-22T10:02:02.576Z,6.00
2023-02-22T10:04:40.895Z,6.20
2023-02-22T10:07:16.914Z,6.50
2023-02-22T10:09:45.295Z,6.70
2023-02-22T10:12:23.356Z,6.80
2023-02-22T10:15:23.354Z,6.80
2023-02-22T10:17:59.044Z,6.90
2023-02-22T10:20:43.694Z,6.90
2023-02-22T10:23:19.805Z,6.90
2023-02-22T10:25:53.541Z,6.90
2023-02-22T10:28:24.513Z,7.20
2023-02-22T10:30:54.583Z,7.20
2023-02-22T10:33:23.101Z,7.40
2023-02-22T10:35:52.423Z,6.90
2023-02-22T10:38:21.514Z,7.30
2023-02-22T10:40:52.906Z,7.40
2023-02-22T10:43:19.729Z,7.60
2023-02-22T10:45:46.714Z,7.60
2023-02-22T10:48:17.549Z,7.70
2023-02-22T10:50:46.521Z,8.10
2023-02-22T10:53:15.119Z,8.30
2023-02-22T10:56:09.948Z,8.40
2023-02-22T10:58:44.643Z,8.30
2023-02-22T11:01:33.514Z,8.40
2023-02-22T11:04:08.814Z,8.50
2023-02-22T11:06:37.189Z,8.60
2023-02-22T11:09:13.223Z,8.50
2023-02-22T11:11:43.090Z,8.60
2023-02-22T11:14:13.646Z,8.70
2023-02-22T11:16:43.104Z,8.90
2023-02-22T11:19:19.187Z,8.70
2023-02-22T11:21:46.366Z,8.50
2023-02-22T11:26:45.825Z,8.40
2023-02-22T11:29:19.572Z,7.90
2023-02-22T11:31:47.341Z,7.70
2023-02-22T11:34:33.285Z,7.80
2023-02-22T11:37:16.443Z,7.80
2023-02-22T11:39:45.205Z,7.70
2023-02-22T11:42:21.422Z,8.00
2023-02-22T11:44:48.250Z,8.00
2023-02-22T11:47:15.232Z,7.90
2023-02-22T11:49:43.945Z,8.20
2023-02-22T11:52:20.363Z,8.40
2023-02-22T11:55:11.723Z,8.50
2023-02-22T11:57:55.536Z,8.50
2023-02-22T12:00:29.822Z,8.50
2023-02-22T12:03:23.073Z,8.90
2023-02-22T12:06:04.328Z,9.00
2023-02-22T12:08:41.211Z,9.00
2023-02-22T12:11:17.130Z,9.30
2023-02-22T12:14:03.998Z,9.40
2023-02-22T12:16:39.105Z,9.30
2023-02-22T12:19:14.681Z,9.20
2023-02-22T12:21:47.225Z,9.10
2023-02-22T12:24:18.622Z,9.10
2023-02-22T12:26:51.740Z,9.10
2023-02-22T12:29:24.648Z,9.20
2023-02-22T12:31:58.557Z,8.80
2023-02-22T12:34:31.237Z,8.90
2023-02-22T12:37:06.411Z,9.20
2023-02-22T12:39:53.190Z,9.10
2023-02-22T12:42:27.921Z,8.90
2023-02-22T12:44:58.058Z,9.10
2023-02-22T12:47:32.696Z,9.20
2023-02-22T12:50:04.984Z,9.30
2023-02-22T12:52:42.869Z,8.90
2023-02-22T12:55:14.616Z,9.00
2023-02-22T12:57:48.617Z,8.90
2023-02-22T13:00:20.017Z,8.60
2023-02-22T13:02:56.342Z,8.80
2023-02-22T13:05:24.248Z,8.90
2023-02-22T13:08:02.332Z,9.10
2023-02-22T13:10:45.270Z,9.10
2023-02-22T13:13:18.807Z,9.10
2023-02-22T13:15:53.129Z,9.00
2023-02-22T13:18:26.249Z,8.90
2023-02-22T13:20:58.006Z,8.90
2023-02-22T13:23:34.830Z,8.90
2023-02-22T13:26:09.269Z,8.90
2023-02-22T13:28:44.323Z,8.90
2023-02-22T13:31:22.808Z,8.90
2023-02-22T13:34:01.230Z,8.80
2023-02-22T13:36:37.086Z,8.60
2023-02-22T13:39:32.177Z,8.70
2023-02-22T13:42:20.755Z,8.70
2023-02-22T13:45:19.870Z,8.70
2023-02-22T13:48:07.146Z,8.80
2023-02-22T13:50:51.271Z,8.90
2023-02-22T13:53:24.718Z,8.70
2023-02-22T13:55:54.524Z,8.60
2023-02-22T13:58:21.342Z,8.50
2023-02-22T14:00:51.864Z,8.50
2023-02-22T14:03:38.000Z,8.50
2023-02-22T14:06:06.439Z,8.60
2023-02-22T14:08:42.001Z,8.70
2023-02-22T14:11:44.569Z,8.70
2023-02-22T14:14:14.240Z,8.80
2023-02-22T14:16:42.590Z,9.00
2023-02-22T14:19:16.482Z,9.10
2023-02-22T14:21:58.743Z,9.10
2023-02-22T14:24:25.781Z,9.10
2023-02-22T14:26:59.316Z,9.20
2023-02-22T14:29:26.311Z,9.40
2023-02-22T14:32:06.448Z,9.20
2023-02-22T14:34:46.756Z,9.00
2023-02-22T14:37:16.950Z,8.90
2023-02-22T14:39:46.576Z,8.80
2023-02-22T14:42:18.992Z,8.70
2023-02-22T14:44:56.643Z,8.60
2023-02-22T14:47:28.298Z,8.50
2023-02-22T14:50:03.098Z,8.50
2023-02-22T14:52:32.682Z,8.40
2023-02-22T14:55:07.083Z,8.20
2023-02-22T14:57:46.093Z,8.30
2023-02-22T15:00:16.801Z,8.30
2023-02-22T15:02:46.531Z,8.20
2023-02-22T15:05:14.377Z,8.10
2023-02-22T15:07:51.320Z,8.10
2023-02-22T15:10:22.759Z,8.00
2023-02-22T15:12:55.021Z,8.10
2023-02-22T15:15:23.513Z,8.00
2023-02-22T15:17:55.426Z,8.00
2023-02-22T15:20:24.263Z,7.90
2023-02-22T15:22:52.033Z,7.80
2023-02-22T15:25:27.417Z,7.70
2023-02-22T15:27:59.881Z,7.70
2023-02-22T15:30:28.364Z,7.80
2023-02-22T15:33:03.983Z,7.80
2023-02-22T15:35:32.758Z,7.70
2023-02-22T15:38:01.554Z,7.70
2023-02-22T15:40:28.753Z,7.70
2023-02-22T15:42:55.498Z,7.70
2023-02-22T15:45:23.942Z,7.60
2023-02-22T15:47:52.326Z,7.50
2023-02-22T15:50:23.765Z,7.50
2023-02-22T15:52:54.237Z,7.50
2023-02-22T15:55:25.540Z,7.50
2023-02-22T15:57:54.271Z,7.50
2023-02-22T16:00:23.948Z,7.50
2023-02-22T16:02:51.653Z,7.50
2023-02-22T16:05:18.828Z,7.40
2023-02-22T16:07:50.195Z,7.40
2023-02-22T16:10:22.661Z,7.40
2023-02-22T16:12:49.625Z,7.40
2023-02-22T16:15:18.669Z,7.30
2023-02-22T16:18:00.005Z,7.20
2023-02-22T16:20:34.019Z,7.20
2023-02-22T16:23:22.682Z,7.10
2023-02-22T16:26:05.900Z,7.10
2023-02-22T16:28:32.932Z,7.00
2023-02-22T16:31:00.686Z,7.00
2023-02-22T16:33:27.919Z,6.90
2023-02-22T16:35:54.671Z,6.90
2023-02-22T16:38:23.585Z,6.90
2023-02-22T16:40:51.089Z,7.00
2023-02-22T16:43:20.366Z,7.00
2023-02-22T16:45:47.221Z,6.90
2023-02-22T16:48:17.121Z,7.00
2023-02-22T16:50:44.050Z,6.90
2023-02-22T16:53:11.037Z,6.90
2023-02-22T16:55:42.674Z,6.90
2023-02-22T16:58:09.667Z,6.90
2023-02-22T17:00:36.664Z,6.80
2023-02-22T17:03:04.848Z,6.80
2023-02-22T17:05:32.664Z,6.80
2023-02-22T17:07:59.692Z,6.80
2023-02-22T17:10:26.457Z,6.70
2023-02-22T17:12:55.851Z,6.80
2023-02-22T17:15:25.452Z,6.80
2023-02-22T17:17:53.435Z,6.70
2023-02-22T17:20:20.685Z,6.70
2023-02-22T17:22:47.906Z,6.70
2023-02-22T17:25:21.367Z,6.60
2023-02-22T17:27:48.357Z,6.70
2023-02-22T17:30:17.153Z,6.70
2023-02-22T17:32:44.065Z,6.60
2023-02-22T17:35:10.811Z,6.70
2023-02-22T17:37:37.542Z,6.70
2023-02-22T17:40:04.536Z,6.80
2023-02-22T17:42:31.268Z,6.80
2023-02-22T17:44:58.018Z,6.80
2023-02-22T17:47:26.188Z,6.80
2023-02-22T17:49:53.016Z,6.80
2023-02-22T17:52:19.807Z,6.80
2023-02-22T17:54:46.524Z,6.80
2023-02-22T17:57:13.272Z,6.70
2023-02-22T17:59:40.664Z,6.70
2023-02-22T18:02:08.162Z,6.70
2023-02-22T18:04:36.319Z,6.70
2023-02-22T18:07:03.116Z,6.60
2023-02-22T18:09:30.065Z,6.60
2023-02-22T18:11:56.798Z,6.50
2023-02-22T18:14:23.707Z,6.50
2023-02-22T18:16:50.414Z,6.50
2023-02-22T18:19:17.158Z,6.50
2023-02-22T18:21:45.276Z,6.50
2023-02-22T18:24:12.176Z,6.50
2023-02-22T18:26:39.241Z,6.50
2023-02-22T18:29:06.693Z,6.50
2023-02-22T18:31:33.498Z,6.40
2023-02-22T18:34:00.267Z,6.40
2023-02-22T18:36:27.023Z,6.30
2023-02-22T18:38:55.448Z,6.30
2023-02-22T18:41:24.076Z,6.40
2023-02-22T18:43:51.136Z,6.40
2023-02-22T18:46:20.368Z,6.40
2023-02-22T18:48:48.583Z,6.40
2023-02-22T18:51:17.023Z,6.40
2023-02-22T18:53:47.130Z,6.40
2023-02-22T18:56:17.861Z,6.40
2023-02-22T18:58:44.754Z,6.40
2023-02-22T19:01:16.149Z,6.40
2023-02-22T19:03:43.803Z,6.40
2023-02-22T19:06:10.708Z,6.40
2023-02-22T19:08:40.285Z,6.40
2023-02-22T19:11:08.634Z,6.40
2023-02-22T19:13:37.142Z,6.40
2023-02-22T19:16:05.681Z,6.40
2023-02-22T19:18:33.015Z,6.40
2023-02-22T19:21:01.212Z,6.40
2023-02-22T19:23:28.021Z,6.40
2023-02-22T19:25:54.858Z,6.40
2023-02-22T19:28:21.630Z,6.30
2023-02-22T19:30:49.730Z,6.40
2023-02-22T19:33:16.456Z,6.30
2023-02-22T19:35:45.632Z,6.30
2023-02-22T19:38:12.391Z,6.30
2023-02-22T19:40:39.158Z,6.30
2023-02-22T19:43:05.946Z,6.30
2023-02-22T19:45:32.849Z,6.30
2023-02-22T19:48:00.953Z,6.30
2023-02-22T19:50:27.731Z,6.30
2023-02-22T19:52:54.452Z,6.30
2023-02-22T19:55:21.302Z,6.30
2023-02-22T19:57:48.068Z,6.30
2023-02-22T20:00:15.497Z,6.30
2023-02-22T20:02:42.317Z,6.30
2023-02-22T20:05:11.732Z,6.30
2023-02-22T20:07:38.753Z,6.30
2023-02-22T20:10:06.233Z,6.30
2023-02-22T20:12:33.396Z,6.40
2023-02-22T20:15:00.191Z,6.30
2023-02-22T20:17:27.508Z,6.30
2023-02-22T20:19:54.456Z,6.30
2023-02-22T20:22:22.719Z,6.30
2023-02-22T20:24:49.554Z,6.30
2023-02-22T20:27:16.624Z,6.30
2023-02-22T20:29:43.387Z,6.30
2023-02-22T20:32:12.853Z,6.30
2023-02-22T20:34:40.418Z,6.20
2023-02-22T20:37:07.148Z,6.30
2023-02-22T20:39:36.235Z,6.30
2023-02-22T20:42:03.021Z,6.30
2023-02-22T20:44:29.753Z,6.30
2023-02-22T20:46:56.516Z,6.20
2023-02-22T20:49:23.281Z,6.20
2023-02-22T20:51:50.017Z,6.20
2023-02-22T20:54:17.245Z,6.20
2023-02-22T20:56:47.495Z,6.20
2023-02-22T20:59:15.998Z,6.20
2023-02-22T21:01:43.213Z,6.20
2023-02-22T21:04:11.264Z,6.20
2023-02-22T21:06:41.321Z,6.20
2023-02-22T21:09:12.261Z,6.10
2023-02-22T21:11:39.111Z,6.10
2023-02-22T21:14:07.512Z,6.00
2023-02-22T21:16:35.976Z,6.00
2023-02-22T21:19:05.227Z,6.00
2023-02-22T21:21:36.680Z,5.90
2023-02-22T21:24:03.577Z,5.90
2023-02-22T21:26:32.841Z,5.90
2023-02-22T21:29:01.619Z,5.90
2023-02-22T21:31:30.034Z,5.90
2023-02-22T21:33:58.079Z,5.90
2023-02-22T21:36:26.016Z,5.80
2023-02-22T21:38:55.215Z,5.80
2023-02-22T21:41:23.289Z,5.80
2023-02-22T21:43:51.662Z,5.80
2023-02-22T21:46:18.835Z,5.70
2023-02-22T21:48:47.197Z,5.70
2023-02-22T21:51:15.841Z,5.70
2023-02-22T21:53:44.507Z,5.70
2023-02-22T21:56:11.583Z,5.70
2023-02-22T21:58:38.329Z,5.70
2023-02-22T22:01:06.349Z,5.60
2023-02-22T22:03:33.427Z,5.60
2023-02-22T22:06:05.259Z,5.60
2023-02-22T22:08:32.001Z,5.60
2023-02-22T22:10:58.737Z,5.50
2023-02-22T22:13:26.716Z,5.50
2023-02-22T22:15:53.750Z,5.50
2023-02-22T22:18:20.482Z,5.50
2023-02-22T22:20:47.217Z,5.50
2023-02-22T22:23:15.321Z,5.50
2023-02-22T22:25:42.071Z,5.40
2023-02-22T22:28:10.276Z,5.40
2023-02-22T22:30:38.061Z,5.40
2023-02-22T22:33:05.060Z,5.40
2023-02-22T22:35:32.403Z,5.40
2023-02-22T22:37:59.550Z,5.30
2023-02-22T22:40:28.445Z,5.30
2023-02-22T22:42:55.184Z,5.30
2023-02-22T22:45:21.995Z,5.30
2023-02-22T22:47:48.737Z,5.30
2023-02-22T22:50:17.355Z,5.30
2023-02-22T22:52:44.406Z,5.20
2023-02-22T22:55:11.488Z,5.20
2023-02-22T22:57:40.543Z,5.20
2023-02-22T23:00:09.725Z,5.20
2023-02-22T23:02:36.482Z,5.20
2023-02-22T23:05:03.451Z,5.20
2023-02-22T23:07:30.210Z,5.20
2023-02-22T23:09:56.925Z,5.20
2023-02-22T23:12:23.684Z,5.20
2023-02-22T23:14:51.880Z,5.20
2023-02-22T23:17:18.637Z,5.20
2023-02-22T23:19:45.431Z,5.20
2023-02-22T23:22:12.302Z,5.30
2023-02-22T23:24:39.403Z,5.30
2023-02-22T23:27:07.235Z,5.20
2023-02-22T23:29:36.342Z,5.30
2023-02-22T23:32:04.570Z,5.20
2023-02-22T23:34:32.189Z,5.20
2023-02-22T23:36:58.965Z,5.30
2023-02-22T23:39:25.865Z,5.30
2023-02-22T23:41:53.794Z,5.30
2023-02-22T23:44:21.185Z,5.30
2023-02-22T23:46:50.840Z,5.30
2023-02-22T23:49:18.872Z,5.30
2023-02-22T23:51:46.154Z,5.30
2023-02-22T23:54:14.375Z,5.30
2023-02-22T23:56:42.373Z,5.30
2023-02-22T23:59:09.126Z,5.20
